< < Back
Terminal Aerodrome Forecast


Current Version              Previous Versions:   1  2  3  4  5  6  7  8  9  

Terminal Aerodrome Forecast

961
FTUS42 KILM 232300
TAFILM
TAF
KILM 232321Z 2400/2424 36009KT P6SM SKC
     FM240800 05005KT P6SM SKC
     FM241800 14008KT P6SM SKC=



Latest METAR

405
SAUS70 KWBC 241100 RRE
MTRILM
METAR KILM 241053Z 03008KT 10SM CLR 10/04 A3006 RMK AO2 SLP180
T01000044


USA.gov is the U.S. government's official web portal to all federal, state and local government web resources and services.